Time;durP1;ratioP1;P1;durP2;ratioP2;P2;SDS_P1;SDS_P2;PMS_P1;PMS_P2;Temp;Humidity;BMP_temperature;BMP_pressure;BME280_temperature;BME280_humidity;BME280_pressure;Samples;Min_cycle;Max_cycle;Signal;HPM_P1;HPM_P2
2023/11/29 00:01:43;;;;;;;10.43;7.68;;;;;;;2.40;100.00;100316.28;5284131;28;20027;-78
2023/11/29 00:04:15;;;;;;;10.60;7.10;;;;;;;2.48;100.00;100333.09;5278213;28;20066;-79
2023/11/29 00:06:47;;;;;;;12.43;7.38;;;;;;;2.44;100.00;100329.84;5282343;28;20031;-77
2023/11/29 00:09:19;;;;;;;14.75;7.50;;;;;;;2.47;100.00;100334.03;5280481;28;20035;-78
2023/11/29 00:11:51;;;;;;;11.75;7.47;;;;;;;2.43;100.00;100328.19;5284267;28;20539;-77
2023/11/29 00:14:23;;;;;;;8.82;6.50;;;;;;;2.42;100.00;100324.78;5281170;28;20043;-78
2023/11/29 00:16:55;;;;;;;11.10;8.15;;;;;;;2.40;100.00;100324.03;5282293;28;20043;-78
2023/11/29 00:19:27;;;;;;;9.35;6.97;;;;;;;2.46;100.00;100322.81;5282872;28;20474;-79
2023/11/29 00:21:59;;;;;;;11.00;7.32;;;;;;;2.47;100.00;100323.69;5278794;28;20545;-79
2023/11/29 00:24:30;;;;;;;11.35;7.63;;;;;;;2.49;100.00;100309.72;5282233;28;20033;-78
2023/11/29 00:27:04;;;;;;;10.95;7.38;;;;;;;2.50;100.00;100307.97;5284561;28;20028;-79
2023/11/29 00:29:36;;;;;;;9.35;7.32;;;;;;;2.55;100.00;100304.19;5271893;28;20036;-81
2023/11/29 00:32:08;;;;;;;13.45;8.13;;;;;;;2.55;100.00;100304.19;5279587;28;20029;-79
2023/11/29 00:34:39;;;;;;;16.83;7.68;;;;;;;2.61;100.00;100297.81;5282566;28;20035;-79
2023/11/29 00:37:11;;;;;;;12.13;7.65;;;;;;;2.65;100.00;100297.56;5278937;28;20020;-79
2023/11/29 00:39:43;;;;;;;9.65;7.28;;;;;;;2.70;100.00;100294.69;5278409;28;20037;-79
2023/11/29 00:42:15;;;;;;;12.95;7.45;;;;;;;2.71;100.00;100292.91;5279663;28;20032;-79
2023/11/29 00:44:47;;;;;;;13.43;7.65;;;;;;;2.72;100.00;100284.22;5284441;28;20048;-78
2023/11/29 00:47:19;;;;;;;10.90;7.22;;;;;;;2.72;100.00;100276.47;5278554;28;20484;-79
2023/11/29 00:49:51;;;;;;;11.10;8.32;;;;;;;2.77;100.00;100280.44;5281827;28;20043;-79
2023/11/29 00:52:23;;;;;;;9.82;7.05;;;;;;;2.76;100.00;100272.78;5280725;28;20117;-79
2023/11/29 00:54:55;;;;;;;12.88;7.20;;;;;;;2.82;100.00;100269.81;5281353;28;20046;-79
2023/11/29 00:57:27;;;;;;;9.75;7.25;;;;;;;2.84;100.00;100270.53;5283393;28;20040;-79
2023/11/29 00:59:59;;;;;;;12.70;7.15;;;;;;;2.87;100.00;100267.75;5284325;28;20032;-79
2023/11/29 01:02:31;;;;;;;9.45;6.88;;;;;;;2.88;100.00;100256.50;5280736;28;20374;-79
2023/11/29 01:05:03;;;;;;;12.55;7.18;;;;;;;2.91;100.00;100271.81;5282700;28;20027;-79
2023/11/29 01:07:35;;;;;;;9.93;6.80;;;;;;;2.97;100.00;100265.44;5262751;28;20496;-79
2023/11/29 01:10:07;;;;;;;13.75;8.40;;;;;;;2.96;100.00;100274.97;5280245;28;20115;-79
2023/11/29 01:12:39;;;;;;;11.88;6.97;;;;;;;3.04;100.00;100311.56;5281233;28;20032;-79
2023/11/29 01:15:11;;;;;;;12.65;7.40;;;;;;;3.06;100.00;100311.44;5280868;28;20067;-79
2023/11/29 01:17:43;;;;;;;12.35;7.72;;;;;;;3.12;100.00;100318.84;5277084;28;20043;-79
2023/11/29 01:20:15;;;;;;;11.82;7.78;;;;;;;3.19;100.00;100327.06;5281616;28;20043;-79
2023/11/29 01:22:47;;;;;;;11.32;9.32;;;;;;;3.24;100.00;100312.06;5277984;28;20036;-79
2023/11/29 01:25:19;;;;;;;10.63;8.32;;;;;;;3.27;100.00;100310.13;5284538;28;20046;-79
2023/11/29 01:27:51;;;;;;;10.90;8.90;;;;;;;3.34;100.00;100300.22;5281163;28;20107;-79
2023/11/29 01:30:22;;;;;;;11.68;9.15;;;;;;;3.36;100.00;100291.41;5281716;28;20032;-79
2023/11/29 01:32:54;;;;;;;9.90;8.90;;;;;;;3.36;100.00;100288.81;5281666;28;20036;-79
2023/11/29 01:35:26;;;;;;;12.70;9.50;;;;;;;3.39;100.00;100304.16;5280514;28;20548;-79
2023/11/29 01:37:58;;;;;;;11.15;9.23;;;;;;;3.39;100.00;100298.16;5283179;28;20043;-79
2023/11/29 01:40:30;;;;;;;11.52;8.43;;;;;;;3.32;100.00;100287.34;5284823;28;20111;-79
2023/11/29 01:43:02;;;;;;;11.05;8.70;;;;;;;3.23;100.00;100287.09;5283906;28;20032;-79
2023/11/29 01:45:34;;;;;;;11.15;9.13;;;;;;;3.40;100.00;100297.22;5280477;28;20036;-79
2023/11/29 01:48:06;;;;;;;10.25;8.80;;;;;;;3.33;100.00;100291.63;5280154;28;20032;-79
2023/11/29 01:50:38;;;;;;;9.93;8.38;;;;;;;3.34;100.00;100306.22;5281619;28;20031;-79
2023/11/29 01:53:11;;;;;;;13.00;8.93;;;;;;;3.33;100.00;100306.28;5283480;28;20035;-79
2023/11/29 01:55:48;;;;;;;12.70;9.32;;;;;;;3.33;100.00;100301.13;5279863;28;20492;-79
2023/11/29 01:58:21;;;;;;;10.68;8.73;;;;;;;3.09;100.00;100281.03;5277810;28;20482;-78
2023/11/29 02:00:53;;;;;;;9.88;8.00;;;;;;;2.97;100.00;100261.09;5283756;28;20032;-78
2023/11/29 02:03:26;;;;;;;10.40;8.93;;;;;;;3.03;100.00;100281.44;5283824;28;20484;-78
2023/11/29 02:05:58;;;;;;;9.95;8.20;;;;;;;2.94;100.00;100253.53;5285883;28;20445;-78
2023/11/29 02:08:31;;;;;;;11.00;9.90;;;;;;;2.93;100.00;100251.88;5281906;28;20036;-78
2023/11/29 02:11:03;;;;;;;11.07;9.87;;;;;;;2.90;100.00;100244.28;5285735;28;20367;-78
2023/11/29 02:13:35;;;;;;;11.43;9.83;;;;;;;2.85;100.00;100230.81;5282488;28;20036;-78
2023/11/29 02:16:07;;;;;;;11.35;9.75;;;;;;;2.86;100.00;100227.31;5283100;28;20270;-78
2023/11/29 02:18:39;;;;;;;13.18;10.65;;;;;;;2.78;100.00;100214.03;5281907;28;20043;-78
2023/11/29 02:21:11;;;;;;;12.95;10.20;;;;;;;2.71;100.00;100192.88;5263522;28;20486;-78
2023/11/29 02:24:07;;;;;;;9.77;8.35;;;;;;;2.88;100.00;100186.66;5285241;28;20024;-78
2023/11/29 02:26:39;;;;;;;10.10;9.05;;;;;;;2.67;100.00;100202.59;5279715;28;20032;-78
2023/11/29 02:29:11;;;;;;;9.15;7.25;;;;;;;2.67;100.00;100188.81;5284873;28;20040;-79
2023/11/29 02:31:42;;;;;;;7.18;5.90;;;;;;;2.67;100.00;100194.00;5279191;28;20027;-78
2023/11/29 02:34:14;;;;;;;6.90;6.20;;;;;;;2.68;100.00;100193.88;5285720;28;20436;-78
2023/11/29 02:36:46;;;;;;;6.93;5.70;;;;;;;2.63;100.00;100177.00;5285038;28;20028;-78
2023/11/29 02:39:18;;;;;;;6.20;5.45;;;;;;;2.58;100.00;100177.31;5287232;28;20047;-79
2023/11/29 02:41:50;;;;;;;7.95;6.63;;;;;;;2.62;100.00;100178.78;5286577;28;20036;-79
2023/11/29 02:44:23;;;;;;;7.05;6.07;;;;;;;2.53;100.00;100160.41;5285752;28;20440;-79
2023/11/29 02:46:55;;;;;;;7.72;6.97;;;;;;;2.58;100.00;100174.72;5278460;28;20032;-79
2023/11/29 02:49:27;;;;;;;7.90;6.93;;;;;;;2.64;100.00;100170.91;5283815;28;20512;-79
2023/11/29 02:51:59;;;;;;;10.18;8.05;;;;;;;2.69;100.00;100192.16;5283071;28;20415;-79
2023/11/29 02:54:31;;;;;;;8.93;7.88;;;;;;;2.73;100.00;100203.97;5284756;28;20114;-79
2023/11/29 02:57:03;;;;;;;7.75;6.95;;;;;;;2.72;100.00;100193.69;5279948;28;20115;-79
2023/11/29 02:59:34;;;;;;;7.68;6.88;;;;;;;2.75;100.00;100165.06;5285028;28;20068;-79
2023/11/29 03:02:07;;;;;;;9.18;7.82;;;;;;;2.73;100.00;100162.59;5280927;28;20127;-79
2023/11/29 03:04:39;;;;;;;9.13;8.27;;;;;;;2.66;100.00;100149.22;5281597;28;20038;-79
2023/11/29 03:07:11;;;;;;;9.23;8.27;;;;;;;2.73;100.00;100139.31;5279182;28;20395;-79
2023/11/29 03:09:43;;;;;;;10.07;8.98;;;;;;;2.71;100.00;100145.50;5279383;28;20032;-79
2023/11/29 03:12:15;;;;;;;10.63;9.52;;;;;;;2.68;100.00;100139.56;5279339;28;20499;-79
2023/11/29 03:14:47;;;;;;;11.35;9.15;;;;;;;2.66;100.00;100127.69;5281860;28;20400;-79
2023/11/29 03:17:19;;;;;;;8.73;7.82;;;;;;;2.71;100.00;100128.22;5261162;28;20118;-79
2023/11/29 03:19:50;;;;;;;9.45;8.38;;;;;;;2.70;100.00;100123.16;5283721;28;20024;-79
2023/11/29 03:22:22;;;;;;;9.45;7.97;;;;;;;2.68;100.00;100115.47;5285468;28;20028;-79
2023/11/29 03:24:54;;;;;;;8.05;7.25;;;;;;;2.71;100.00;100110.13;5280238;28;20058;-79
2023/11/29 03:27:26;;;;;;;9.15;7.93;;;;;;;2.67;100.00;100106.88;5285530;28;20051;-79
2023/11/29 03:29:58;;;;;;;7.75;6.95;;;;;;;2.75;100.00;100103.00;5283861;28;20465;-79
2023/11/29 03:32:30;;;;;;;8.27;7.28;;;;;;;2.77;100.00;100103.72;5280324;28;20149;-79
2023/11/29 03:35:02;;;;;;;8.70;7.78;;;;;;;2.76;100.00;100092.53;5279639;28;20484;-79
2023/11/29 03:37:34;;;;;;;8.18;7.38;;;;;;;2.79;100.00;100097.50;5283330;28;20515;-79
2023/11/29 03:40:07;;;;;;;8.68;7.78;;;;;;;2.78;100.00;100090.69;5279923;28;20042;-79
2023/11/29 03:42:38;;;;;;;8.20;7.50;;;;;;;2.80;100.00;100083.66;5279612;28;20036;-79
2023/11/29 03:45:10;;;;;;;8.68;7.25;;;;;;;2.68;100.00;100071.50;5282297;28;20464;-79
2023/11/29 03:47:42;;;;;;;8.63;7.82;;;;;;;2.72;100.00;100077.31;5282322;28;20400;-79
2023/11/29 03:50:14;;;;;;;9.25;7.95;;;;;;;2.75;100.00;100075.38;5285812;28;20031;-79
2023/11/29 03:52:46;;;;;;;15.98;8.82;;;;;;;2.71;100.00;100067.91;5288624;28;20128;-79
2023/11/29 03:55:18;;;;;;;12.63;8.65;;;;;;;2.66;100.00;100079.38;5285602;28;20756;-79
2023/11/29 03:57:50;;;;;;;10.05;8.27;;;;;;;2.68;100.00;100072.34;5280323;28;20631;-79
2023/11/29 04:00:23;;;;;;;11.13;8.52;;;;;;;2.67;100.00;100060.34;5278343;28;20405;-80
2023/11/29 04:02:55;;;;;;;9.57;8.23;;;;;;;2.68;100.00;100064.56;5280262;28;20032;-79
2023/11/29 04:05:27;;;;;;;9.27;8.25;;;;;;;2.67;100.00;100052.59;5283948;28;20032;-79
2023/11/29 04:07:58;;;;;;;8.50;7.60;;;;;;;2.65;100.00;100049.28;5280334;28;21018;-79
2023/11/29 04:10:33;;;;;;;10.95;8.50;;;;;;;2.66;100.00;100050.09;5286033;28;20032;-79
2023/11/29 04:13:05;;;;;;;10.10;8.40;;;;;;;2.71;100.00;100044.63;5282018;28;20028;-79
2023/11/29 04:15:37;;;;;;;8.80;7.88;;;;;;;2.65;100.00;100043.25;5279556;28;20112;-80
2023/11/29 04:18:09;;;;;;;11.65;8.27;;;;;;;2.67;100.00;100041.41;5277671;28;20032;-80
2023/11/29 04:20:41;;;;;;;9.75;8.55;;;;;;;2.70;100.00;100041.22;5281390;28;20028;-80
2023/11/29 04:23:13;;;;;;;9.90;8.32;;;;;;;2.67;100.00;100051.75;5282417;28;20070;-80
2023/11/29 04:25:45;;;;;;;10.35;8.27;;;;;;;2.64;100.00;100026.09;5279360;28;20077;-79
2023/11/29 04:28:17;;;;;;;9.80;8.05;;;;;;;2.70;100.00;100040.41;5278981;28;20094;-78
2023/11/29 04:30:49;;;;;;;8.77;7.10;;;;;;;2.65;100.00;100044.13;5280423;28;20045;-78
2023/11/29 04:33:21;;;;;;;9.07;7.00;;;;;;;2.77;100.00;100044.25;5280502;28;20587;-78
2023/11/29 04:35:54;;;;;;;8.73;7.13;;;;;;;2.77;100.00;100033.91;5280267;28;20108;-78
2023/11/29 04:38:26;;;;;;;;;;;;;;;3.29;100.00;100033.00;5283130;28;20504;-78
2023/11/29 04:40:58;;;;;;;7.32;6.13;;;;;;;2.85;100.00;100029.88;5277179;28;19916;-79
2023/11/29 04:43:30;;;;;;;7.50;6.68;;;;;;;2.81;100.00;100035.34;5281473;28;20394;-78
2023/11/29 04:46:02;;;;;;;6.80;5.57;;;;;;;2.82;100.00;100032.66;5280172;28;20078;-79
2023/11/29 04:48:35;;;;;;;10.52;6.43;;;;;;;2.86;100.00;100025.53;5276774;28;20035;-79
2023/11/29 04:51:07;;;;;;;9.10;6.00;;;;;;;2.89;100.00;100025.31;5282046;28;20036;-78
2023/11/29 04:53:39;;;;;;;7.60;5.40;;;;;;;2.87;100.00;100016.81;5282026;28;20102;-78
2023/11/29 04:56:11;;;;;;;7.88;5.55;;;;;;;2.93;100.00;100022.44;5269466;28;20040;-78
2023/11/29 04:58:43;;;;;;;11.18;7.32;;;;;;;2.88;100.00;100019.34;5277528;28;20036;-78
2023/11/29 05:01:15;;;;;;;10.07;6.20;;;;;;;2.90;100.00;100016.63;5279084;28;20040;-79
2023/11/29 05:03:47;;;;;;;8.23;6.03;;;;;;;2.95;100.00;100009.38;5279405;28;20036;-78
2023/11/29 05:06:20;;;;;;;9.15;6.70;;;;;;;2.92;100.00;100005.25;5281213;28;20032;-77
2023/11/29 05:08:52;;;;;;;10.93;7.43;;;;;;;3.00;100.00;100001.34;5278479;28;20024;-78
2023/11/29 05:11:24;;;;;;;9.48;7.57;;;;;;;2.93;100.00;99993.97;5280763;28;20067;-78
2023/11/29 05:13:56;;;;;;;9.03;7.03;;;;;;;3.01;100.00;99993.47;5281312;28;20363;-79
2023/11/29 05:16:28;;;;;;;8.82;7.43;;;;;;;3.00;100.00;99993.56;5280351;28;20291;-78
2023/11/29 05:19:00;;;;;;;10.02;6.32;;;;;;;3.06;100.00;99998.31;5281172;28;20047;-79
2023/11/29 05:21:32;;;;;;;10.07;7.50;;;;;;;3.08;100.00;99979.19;5277881;28;20032;-78
2023/11/29 05:24:04;;;;;;;8.60;7.05;;;;;;;3.13;100.00;99999.56;5277905;28;20133;-78
2023/11/29 05:26:36;;;;;;;8.65;7.28;;;;;;;3.19;100.00;100006.94;5278285;28;20048;-78
2023/11/29 05:29:08;;;;;;;8.82;7.18;;;;;;;3.20;100.00;100011.16;5262480;28;20469;-78
2023/11/29 05:31:40;;;;;;;14.02;7.60;;;;;;;3.26;100.00;100030.63;5279938;28;20029;-78
2023/11/29 05:34:12;;;;;;;7.78;6.97;;;;;;;3.30;100.00;100025.16;5278877;28;20036;-77
2023/11/29 05:36:44;;;;;;;19.38;6.95;;;;;;;3.36;100.00;100024.72;5277108;28;20039;-78
2023/11/29 05:39:16;;;;;;;10.02;7.47;;;;;;;3.35;100.00;100030.84;5283770;28;20046;-78
2023/11/29 05:41:49;;;;;;;11.95;8.18;;;;;;;3.40;100.00;100035.69;5282468;28;20500;-79
2023/11/29 05:44:21;;;;;;;9.23;8.13;;;;;;;3.41;100.00;100029.59;5277011;28;20044;-79
2023/11/29 05:46:53;;;;;;;9.48;7.22;;;;;;;3.48;100.00;100028.22;5284241;28;20036;-79
2023/11/29 05:49:25;;;;;;;10.23;8.70;;;;;;;3.42;100.00;100021.72;5282899;28;20039;-79
2023/11/29 05:51:57;;;;;;;9.05;8.15;;;;;;;3.51;100.00;100043.56;5285904;28;20124;-79
2023/11/29 05:54:29;;;;;;;9.18;8.25;;;;;;;3.52;100.00;100026.25;5284146;28;20111;-77
2023/11/29 05:57:02;;;;;;;9.07;7.53;;;;;;;3.56;100.00;100023.38;5284750;28;20032;-78
2023/11/29 05:59:36;;;;;;;7.88;6.70;;;;;;;3.51;100.00;100022.84;5285968;28;20035;-78
2023/11/29 06:02:07;;;;;;;7.68;6.72;;;;;;;3.54;100.00;100035.59;5285555;28;20035;-78
2023/11/29 06:04:40;;;;;;;9.70;7.80;;;;;;;3.50;100.00;100026.38;5280749;28;20024;-78
2023/11/29 06:07:11;;;;;;;9.90;7.82;;;;;;;3.47;100.00;100023.16;5281387;28;20028;-78
2023/11/29 06:09:44;;;;;;;10.68;7.63;;;;;;;3.40;100.00;100014.97;5283579;28;20028;-78
2023/11/29 06:12:16;;;;;;;7.90;7.10;;;;;;;3.47;100.00;100023.16;5279398;28;20056;-78
2023/11/29 06:14:48;;;;;;;8.73;7.90;;;;;;;3.45;100.00;100033.66;5280003;28;20040;-78
2023/11/29 06:17:20;;;;;;;8.80;7.85;;;;;;;3.44;100.00;100026.78;5278989;28;20028;-77
2023/11/29 06:19:52;;;;;;;9.23;7.83;;;;;;;3.49;100.00;100044.63;5280286;28;20730;-78
2023/11/29 06:22:24;;;;;;;9.35;8.35;;;;;;;3.46;100.00;100050.81;5277883;28;20533;-78
2023/11/29 06:24:56;;;;;;;8.93;7.78;;;;;;;3.47;100.00;100042.13;5283578;28;20032;-78
2023/11/29 06:27:29;;;;;;;8.27;7.45;;;;;;;3.47;100.00;100023.16;5280322;28;20643;-78
2023/11/29 06:30:01;;;;;;;8.30;7.50;;;;;;;3.46;100.00;100030.13;5279859;28;20396;-78
2023/11/29 06:32:35;;;;;;;7.97;6.80;;;;;;;3.44;100.00;100023.38;5282172;28;20115;-78
2023/11/29 06:35:11;;;;;;;8.60;7.47;;;;;;;3.42;100.00;100026.06;5284800;28;20024;-78
2023/11/29 06:37:45;;;;;;;9.52;6.30;;;;;;;3.45;100.00;100017.25;5281100;28;20040;-78
2023/11/29 06:40:17;;;;;;;8.63;5.55;;;;;;;3.38;100.00;100027.22;5282001;28;20044;-78
2023/11/29 06:42:49;;;;;;;7.30;5.20;;;;;;;3.41;100.00;100037.38;5283356;28;20039;-78
2023/11/29 06:45:21;;;;;;;6.22;4.05;;;;;;;3.46;100.00;100037.88;5284800;28;20564;-77
2023/11/29 06:47:53;;;;;;;7.25;4.70;;;;;;;3.50;100.00;100028.97;5279855;28;20378;-78
2023/11/29 06:50:25;;;;;;;6.30;3.65;;;;;;;3.49;100.00;100042.84;5287666;28;20051;-78
2023/11/29 06:52:58;;;;;;;4.65;3.42;;;;;;;3.49;100.00;100055.81;5283673;28;20032;-78
2023/11/29 06:55:32;;;;;;;6.25;3.75;;;;;;;3.53;100.00;100070.19;5281204;28;20385;-78
2023/11/29 06:58:04;;;;;;;5.18;3.60;;;;;;;3.51;100.00;100072.06;5296421;22;20032;-78
2023/11/29 07:00:36;;;;;;;5.82;3.58;;;;;;;3.56;100.00;100085.53;5261384;28;20044;-75
2023/11/29 07:03:08;;;;;;;6.35;3.65;;;;;;;3.58;100.00;100070.69;5265277;28;20044;-76
2023/11/29 07:05:40;;;;;;;3.83;3.28;;;;;;;3.60;100.00;100068.84;5258345;28;20166;-77
2023/11/29 07:08:12;;;;;;;5.45;3.72;;;;;;;3.57;100.00;100076.00;5261406;28;20021;-76
2023/11/29 07:10:44;;;;;;;5.15;3.65;;;;;;;3.45;100.00;100063.84;5261806;28;20032;-76
2023/11/29 07:13:16;;;;;;;5.35;4.07;;;;;;;3.50;100.00;100065.22;5259074;28;20413;-77
2023/11/29 07:15:48;;;;;;;6.68;4.82;;;;;;;3.53;100.00;100077.16;5258479;28;20032;-77
2023/11/29 07:18:19;;;;;;;12.20;5.43;;;;;;;3.52;100.00;100057.34;5260767;28;20028;-75
2023/11/29 07:20:52;;;;;;;7.07;5.90;;;;;;;3.51;100.00;100055.69;5258041;28;20029;-76
2023/11/29 07:23:23;;;;;;;8.70;6.65;;;;;;;3.49;100.00;100062.75;5253443;28;20035;-75
2023/11/29 07:25:56;;;;;;;6.95;6.25;;;;;;;3.51;100.00;100066.88;5258979;28;20404;-77
2023/11/29 07:28:28;;;;;;;6.75;6.05;;;;;;;3.54;100.00;100078.78;5260192;28;20824;-76
2023/11/29 07:30:59;;;;;;;7.78;6.97;;;;;;;3.42;100.00;100055.38;5258576;28;20029;-77
2023/11/29 07:33:31;;;;;;;8.73;6.50;;;;;;;3.57;100.00;100076.81;5260275;28;20500;-76
2023/11/29 07:36:08;;;;;;;8.40;7.10;;;;;;;3.57;100.00;100071.66;5259240;28;20384;-77
2023/11/29 07:38:40;;;;;;;8.07;6.88;;;;;;;3.57;100.00;100076.81;5256879;28;20041;-76
2023/11/29 07:41:12;;;;;;;8.77;7.47;;;;;;;3.59;100.00;100069.75;5259026;28;20028;-76
2023/11/29 07:43:44;;;;;;;8.38;7.00;;;;;;;3.61;100.00;100059.31;5258451;28;20032;-76
2023/11/29 07:46:17;;;;;;;9.65;7.18;;;;;;;3.64;100.00;100064.28;5259283;28;20047;-76
2023/11/29 07:48:49;;;;;;;7.53;6.72;;;;;;;3.72;100.00;100063.75;5260135;28;20027;-76
2023/11/29 07:51:22;;;;;;;8.80;6.22;;;;;;;3.75;100.00;100068.72;5262625;28;20124;-76
2023/11/29 07:53:54;;;;;;;;;;;;;;;4.30;100.00;100080.44;5257549;28;20033;-77
2023/11/29 07:56:26;;;;;;;9.02;5.75;;;;;;;3.77;100.00;100091.00;5259912;28;19931;-76
2023/11/29 07:58:58;;;;;;;11.43;6.57;;;;;;;3.89;100.00;100120.41;5255435;28;20402;-76
2023/11/29 08:01:30;;;;;;;10.93;6.65;;;;;;;3.81;100.00;100120.94;5265306;28;20037;-76
2023/11/29 08:04:02;;;;;;;7.80;6.03;;;;;;;3.69;100.00;100098.47;5258072;28;20052;-76
2023/11/29 08:06:34;;;;;;;7.65;5.07;;;;;;;3.79;100.00;100124.56;5262848;28;20024;-76
2023/11/29 08:09:08;;;;;;;6.30;4.60;;;;;;;3.77;100.00;100129.03;5238841;28;20404;-77
2023/11/29 08:11:40;;;;;;;9.13;5.10;;;;;;;3.80;100.00;100121.88;5261890;28;20493;-76
2023/11/29 08:14:12;;;;;;;5.47;4.70;;;;;;;3.84;100.00;100133.69;5244935;28;20046;-76
2023/11/29 08:16:44;;;;;;;8.50;4.60;;;;;;;3.90;100.00;100135.03;5243425;28;20048;-76
2023/11/29 08:19:15;;;;;;;6.72;4.68;;;;;;;3.95;100.00;100132.97;5260320;28;20035;-76
2023/11/29 08:21:48;;;;;;;5.63;4.00;;;;;;;3.99;100.00;100149.97;5262155;28;20035;-77
2023/11/29 08:24:20;;;;;;;6.70;3.50;;;;;;;3.97;100.00;100132.84;5257871;28;20603;-76
2023/11/29 08:26:51;;;;;;;6.30;3.58;;;;;;;3.96;100.00;100139.81;5255341;28;20063;-77
2023/11/29 08:29:23;;;;;;;6.30;3.40;;;;;;;3.98;100.00;100130.19;5263624;28;20111;-77
2023/11/29 08:31:55;;;;;;;5.45;2.78;;;;;;;4.04;100.00;100147.06;5258018;28;20029;-77
2023/11/29 08:34:27;;;;;;;6.93;2.67;;;;;;;4.05;100.00;100149.56;5257969;28;20028;-77
2023/11/29 08:36:59;;;;;;;5.43;3.03;;;;;;;4.03;100.00;100143.63;5260922;28;20115;-76
2023/11/29 08:39:31;;;;;;;4.22;2.40;;;;;;;4.02;100.00;100136.81;5240562;28;20041;-77
2023/11/29 08:42:03;;;;;;;4.63;2.50;;;;;;;4.08;100.00;100149.31;5241118;28;20039;-76
2023/11/29 08:44:35;;;;;;;3.78;2.00;;;;;;;4.12;100.00;100153.34;5256733;28;20039;-76
2023/11/29 08:47:07;;;;;;;5.75;2.30;;;;;;;4.12;100.00;100148.16;5258191;28;20800;-76
2023/11/29 08:49:39;;;;;;;4.75;2.30;;;;;;;4.15;100.00;100154.91;5256457;28;20063;-77
2023/11/29 08:52:11;;;;;;;3.38;2.40;;;;;;;4.10;100.00;100150.06;5260654;28;20036;-75
2023/11/29 08:54:47;;;;;;;5.57;2.25;;;;;;;4.14;100.00;100146.31;5256619;28;20033;-77
2023/11/29 08:57:22;;;;;;;5.60;2.50;;;;;;;4.25;100.00;100145.56;5266265;28;20025;-77
2023/11/29 08:59:54;;;;;;;5.90;2.60;;;;;;;4.17;100.00;100147.03;5261125;28;20053;-76
2023/11/29 09:02:29;;;;;;;5.75;2.40;;;;;;;4.20;100.00;100139.03;5258079;28;20030;-77
2023/11/29 09:05:03;;;;;;;5.97;3.05;;;;;;;4.19;100.00;100147.75;5257303;28;20477;-77
2023/11/29 09:07:36;;;;;;;6.28;3.28;;;;;;;4.19;100.00;100156.34;5258476;28;20037;-76
2023/11/29 09:10:09;;;;;;;4.15;3.67;;;;;;;4.23;100.00;100154.38;5244261;28;20059;-76
2023/11/29 09:12:41;;;;;;;;;;;;;;;4.78;100.00;100158.28;5261836;28;20388;-76
2023/11/29 09:15:13;;;;;;;5.65;3.45;;;;;;;4.32;100.00;100161.53;5257237;28;19916;-76
2023/11/29 09:17:46;;;;;;;5.55;3.90;;;;;;;4.31;100.00;100168.47;5256256;28;20360;-77
2023/11/29 09:20:17;;;;;;;7.22;4.00;;;;;;;4.34;100.00;100168.25;5260951;28;20474;-76
2023/11/29 09:22:50;;;;;;;4.72;3.65;;;;;;;4.34;100.00;100167.44;5257767;28;20042;-75
2023/11/29 09:25:22;;;;;;;7.00;3.97;;;;;;;4.43;100.00;100182.34;5257838;28;20024;-76
2023/11/29 09:27:54;;;;;;;5.22;3.72;;;;;;;4.48;100.00;100185.47;5259116;28;20039;-76
2023/11/29 09:30:26;;;;;;;5.82;3.38;;;;;;;4.46;100.00;100176.94;5259989;28;20045;-76
2023/11/29 09:32:58;;;;;;;6.45;3.30;;;;;;;4.53;100.00;100177.34;5260895;28;20028;-76
2023/11/29 09:35:30;;;;;;;6.05;3.50;;;;;;;4.62;100.00;100187.06;5240362;28;20516;-76
2023/11/29 09:38:04;;;;;;;4.57;3.10;;;;;;;4.63;100.00;100193.94;5258545;28;20029;-76
2023/11/29 09:40:35;;;;;;;6.47;2.53;;;;;;;4.63;100.00;100186.97;5257981;28;20414;-76
2023/11/29 09:43:08;;;;;;;6.18;2.63;;;;;;;4.72;100.00;100208.84;5259961;28;20037;-76
2023/11/29 09:45:40;;;;;;;7.05;2.60;;;;;;;4.73;100.00;100200.13;5259648;28;20039;-76
2023/11/29 09:48:12;;;;;;;6.10;1.80;;;;;;;4.71;100.00;100202.00;5258914;28;20612;-78
2023/11/29 09:50:44;;;;;;;6.13;1.67;;;;;;;4.78;100.00;100208.41;5254441;28;20458;-76
2023/11/29 09:53:17;;;;;;;2.40;1.40;;;;;;;4.75;100.00;100211.22;5259875;28;20037;-76
2023/11/29 09:55:49;;;;;;;5.60;1.30;;;;;;;4.71;100.00;100201.19;5251696;28;20397;-76
2023/11/29 09:58:22;;;;;;;2.92;1.10;;;;;;;4.69;100.00;100206.47;5257111;28;20045;-75
2023/11/29 10:00:54;;;;;;;3.83;1.25;;;;;;;4.69;100.00;100198.69;5258749;28;20032;-77
2023/11/29 10:03:26;;;;;;;3.85;1.08;;;;;;;4.77;100.00;100211.97;5240421;28;20053;-76
2023/11/29 10:05:58;;;;;;;4.82;1.27;;;;;;;4.83;100.00;100219.28;5263307;28;20303;-76
2023/11/29 10:08:30;;;;;;;6.18;1.98;;;;;;;4.76;100.00;100205.09;5256318;28;20039;-75
2023/11/29 10:11:04;;;;;;;2.25;1.05;;;;;;;4.83;100.00;100200.31;5255169;28;20036;-76
2023/11/29 10:13:36;;;;;;;2.88;1.00;;;;;;;4.78;100.00;100211.03;5255595;28;20462;-76
2023/11/29 10:16:08;;;;;;;2.67;1.00;;;;;;;4.83;100.00;100221.88;5258778;28;20032;-76
2023/11/29 10:18:40;;;;;;;5.38;1.92;;;;;;;4.82;100.00;100215.06;5252327;28;20029;-75
2023/11/29 10:21:12;;;;;;;2.45;1.17;;;;;;;4.84;100.00;100220.13;5258071;28;20047;-76
2023/11/29 10:23:47;;;;;;;3.80;1.27;;;;;;;4.87;100.00;100222.50;5254577;28;20037;-76
2023/11/29 10:26:21;;;;;;;2.05;0.93;;;;;;;4.91;100.00;100215.31;5260348;28;20049;-76
2023/11/29 10:28:53;;;;;;;2.30;0.98;;;;;;;4.91;100.00;100218.75;5244807;28;20040;-76
2023/11/29 10:31:27;;;;;;;4.88;1.38;;;;;;;4.96;100.00;100211.44;5262098;28;20507;-76
2023/11/29 10:34:00;;;;;;;4.38;1.30;;;;;;;5.02;100.00;100218.81;5260759;28;20044;-77
2023/11/29 10:36:32;;;;;;;3.55;1.27;;;;;;;5.08;100.00;100209.78;5261592;28;20315;-76
2023/11/29 10:39:08;;;;;;;3.38;0.98;;;;;;;5.23;100.00;100205.25;5260269;28;20033;-76
2023/11/29 10:41:49;;;;;;;3.10;1.33;;;;;;;5.43;100.00;100214.16;5262842;28;20041;-76
2023/11/29 10:44:24;;;;;;;3.72;1.13;;;;;;;5.36;100.00;100212.00;5261478;28;20029;-76
2023/11/29 10:47:03;;;;;;;3.53;1.40;;;;;;;5.37;100.00;100200.66;5264943;28;20141;-76
2023/11/29 10:49:48;;;;;;;3.13;1.73;;;;;;;5.45;100.00;100187.13;5260885;28;20044;-76
2023/11/29 10:52:19;;;;;;;3.60;1.10;;;;;;;5.37;100.00;100199.84;5264916;28;20481;-76
2023/11/29 10:54:52;;;;;;;2.58;1.13;;;;;;;5.34;100.00;100207.84;5259307;28;20029;-76
2023/11/29 10:57:31;;;;;;;5.07;1.60;;;;;;;5.40;100.00;100204.81;5258243;28;20040;-77
2023/11/29 11:00:15;;;;;;;5.88;1.42;;;;;;;5.39;100.00;100199.75;5260136;28;20041;-77
2023/11/29 11:02:47;;;;;;;2.83;1.30;;;;;;;5.25;100.00;100211.97;5241543;28;20766;-76
2023/11/29 11:05:24;;;;;;;6.55;2.03;;;;;;;5.30;100.00;100209.03;5261368;28;20470;-76
2023/11/29 11:07:55;;;;;;;2.80;1.55;;;;;;;5.15;100.00;100202.34;5259980;28;20375;-76
2023/11/29 11:10:29;;;;;;;4.95;1.58;;;;;;;5.26;100.00;100205.81;5258208;28;20043;-76
2023/11/29 11:13:03;;;;;;;1.95;1.10;;;;;;;5.29;100.00;100208.19;5262273;28;20029;-76
2023/11/29 11:15:37;;;;;;;3.30;1.58;;;;;;;5.27;100.00;100201.47;5261501;28;20056;-75
2023/11/29 11:18:09;;;;;;;3.35;1.50;;;;;;;5.34;100.00;100205.25;5264265;28;20063;-76
2023/11/29 11:20:48;;;;;;;4.82;1.52;;;;;;;5.43;100.00;100199.41;5259710;28;20035;-77
2023/11/29 11:23:22;;;;;;;3.63;1.40;;;;;;;5.40;100.00;100194.44;5258125;28;20040;-76
2023/11/29 11:25:57;;;;;;;;;;;;;;;6.12;100.00;100204.66;5260045;28;20500;-75
2023/11/29 11:28:37;;;;;;;3.92;1.48;;;;;;;5.75;100.00;100193.56;5251078;28;19924;-76
2023/11/29 11:31:12;;;;;;;3.13;1.35;;;;;;;5.64;100.00;100202.16;5261876;28;20397;-76
2023/11/29 11:33:53;;;;;;;3.58;1.60;;;;;;;5.76;100.00;100195.25;5259494;28;20029;-77
2023/11/29 11:36:26;;;;;;;5.82;1.98;;;;;;;5.50;100.00;100194.59;5258424;28;20033;-76
2023/11/29 11:38:59;;;;;;;5.32;1.83;;;;;;;5.54;100.00;100201.22;5260414;28;20426;-76
2023/11/29 11:41:33;;;;;;;4.18;1.77;;;;;;;5.54;100.00;100193.41;5258983;28;20488;-76
2023/11/29 11:44:06;;;;;;;3.08;1.67;;;;;;;5.49;100.00;100187.72;5262197;28;20471;-76
2023/11/29 11:46:39;;;;;;;;;;;;;;;6.16;100.00;100194.84;5260790;28;20373;-76
2023/11/29 11:49:11;;;;;;;5.90;2.00;;;;;;;5.50;100.00;100182.44;5255901;28;20349;-77